PWSweather.com
Personal Weather Stations
Station Observations
SD92115WX
El Cerrito Stoneybluff, San Diego, CA 92115

El Cerrito StoneybluffSan Diego, CA 92115

Lat: 32.754096, Lon: -117.066705

Elevation: 420

Station Type: Davis Vantage Vue

http://stoneybluff.com

High Low Average
Temperature 71.4°F21.9°C 43.2°F6.2°C 56.1°F13.4°C
Dew Point 54.5°F12.5°C 42.1°F5.6°C 48.2°F9.0°C
Winds 8.9 mph 14.3 kmh Calm Calm 1.0 mph S1.6 kmh S
Wind Gusts 18.1 mph29.1 kmh -- 4.0 mph6.4 kmh
Humidity 96% 44% 77%
Pressure 30.02 in1016.6 mb 29.81 in1009.5 mb -
Precipitation 0.03 in0.8 mm - -
Hour Temp Dew Point Humidity Winds Wind Gusts Pressure Precip Precip Rate Daily Precip Total
12:01 AM 49.1°F9.5°C 47.1°F8.4°C 93% Calm Calm -- 29.98 in1015.2 mb 0.00 in0.0 mm 0.00 in0.0 mm 0.00 in0.0 mm
12:06 AM 48.9°F9.4°C 46.9°F8.3°C 93% Calm Calm -- 29.97 in1014.9 mb 0.00 in0.0 mm 0.00 in0.0 mm 0.00 in0.0 mm
12:11 AM 48.9°F9.4°C 47.3°F8.5°C 94% Calm Calm -- 29.97 in1014.9 mb 0.00 in0.0 mm 0.00 in0.0 mm 0.00 in0.0 mm
12:16 AM 48.7°F9.3°C 46.8°F8.2°C 93% Calm Calm -- 29.97 in1014.9 mb 0.00 in0.0 mm 0.00 in0.0 mm 0.00 in0.0 mm
12:21 AM 48.9°F9.4°C 47.3°F8.5°C 94% Calm Calm -- 29.97 in1014.9 mb 0.00 in0.0 mm 0.00 in0.0 mm 0.00 in0.0 mm
12:26 AM 48.9°F9.4°C 47.3°F8.5°C 94% Calm Calm -- 29.97 in1014.9 mb 0.00 in0.0 mm 0.00 in0.0 mm 0.00 in0.0 mm
12:31 AM 48.9°F9.4°C 47.3°F8.5°C 94% Calm Calm -- 29.97 in1014.9 mb 0.00 in0.0 mm 0.00 in0.0 mm 0.00 in0.0 mm
12:36 AM 48.9°F9.4°C 47.3°F8.5°C 94% Calm Calm -- 29.98 in1015.2 mb 0.00 in0.0 mm 0.00 in0.0 mm 0.00 in0.0 mm
12:41 AM 48.9°F9.4°C 47.3°F8.5°C 94% Calm Calm -- 29.97 in1014.9 mb 0.00 in0.0 mm 0.00 in0.0 mm 0.00 in0.0 mm
12:46 AM 48.9°F9.4°C 47.3°F8.5°C 94% Calm Calm -- 29.97 in1014.9 mb 0.00 in0.0 mm 0.00 in0.0 mm 0.00 in0.0 mm
12:51 AM 48.9°F9.4°C 47.3°F8.5°C 94% Calm Calm 1.1 mph1.8 kmh 29.98 in1015.2 mb 0.00 in0.0 mm 0.00 in0.0 mm 0.00 in0.0 mm
12:56 AM 48.9°F9.4°C 47.3°F8.5°C 94% Calm Calm 1.1 mph1.8 kmh 29.97 in1014.9 mb 0.00 in0.0 mm 0.00 in0.0 mm 0.00 in0.0 mm
01:01 AM 48.7°F9.3°C 46.8°F8.2°C 93% Calm Calm -- 29.98 in1015.2 mb 0.00 in0.0 mm 0.00 in0.0 mm 0.00 in0.0 mm
01:06 AM 48.6°F9.2°C 46.9°F8.3°C 94% Calm Calm -- 29.97 in1014.9 mb 0.00 in0.0 mm 0.00 in0.0 mm 0.00 in0.0 mm
01:11 AM 48.4°F9.1°C 46.4°F8.0°C 93% 0.4 mph E0.6 kmh E 1.1 mph1.8 kmh 29.97 in1014.9 mb 0.00 in0.0 mm 0.00 in0.0 mm 0.00 in0.0 mm
01:16 AM 47.8°F8.8°C 45.9°F7.7°C 93% Calm Calm 1.1 mph1.8 kmh 29.97 in1014.9 mb 0.00 in0.0 mm 0.00 in0.0 mm 0.00 in0.0 mm
01:21 AM 47.7°F8.7°C 46.0°F7.8°C 94% Calm Calm -- 29.96 in1014.6 mb 0.00 in0.0 mm 0.00 in0.0 mm 0.00 in0.0 mm
01:26 AM 47.5°F8.6°C 45.5°F7.5°C 93% Calm Calm -- 29.96 in1014.6 mb 0.00 in0.0 mm 0.00 in0.0 mm 0.00 in0.0 mm
01:31 AM 47.3°F8.5°C 45.7°F7.6°C 94% Calm Calm -- 29.95 in1014.2 mb 0.00 in0.0 mm 0.00 in0.0 mm 0.00 in0.0 mm
01:36 AM 47.1°F8.4°C 45.5°F7.5°C 94% Calm Calm -- 29.96 in1014.6 mb 0.00 in0.0 mm 0.00 in0.0 mm 0.00 in0.0 mm
01:41 AM 47.1°F8.4°C 45.5°F7.5°C 94% Calm Calm -- 29.96 in1014.6 mb 0.00 in0.0 mm 0.00 in0.0 mm 0.00 in0.0 mm
01:46 AM 47.1°F8.4°C 45.5°F7.5°C 94% Calm Calm -- 29.96 in1014.6 mb 0.00 in0.0 mm 0.00 in0.0 mm 0.00 in0.0 mm
01:51 AM 46.9°F8.3°C 45.3°F7.4°C 94% Calm Calm -- 29.96 in1014.6 mb 0.00 in0.0 mm 0.00 in0.0 mm 0.00 in0.0 mm
01:56 AM 46.9°F8.3°C 45.3°F7.4°C 94% Calm Calm -- 29.95 in1014.2 mb 0.00 in0.0 mm 0.00 in0.0 mm 0.00 in0.0 mm
02:01 AM 46.6°F8.1°C 45.0°F7.2°C 94% Calm Calm -- 29.95 in1014.2 mb 0.00 in0.0 mm 0.00 in0.0 mm 0.00 in0.0 mm
02:06 AM 46.8°F8.2°C 45.3°F7.4°C 95% Calm Calm -- 29.95 in1014.2 mb 0.00 in0.0 mm 0.00 in0.0 mm 0.00 in0.0 mm
02:11 AM 46.9°F8.3°C 45.5°F7.5°C 95% Calm Calm -- 29.95 in1014.2 mb 0.00 in0.0 mm 0.00 in0.0 mm 0.00 in0.0 mm
02:16 AM 46.9°F8.3°C 45.3°F7.4°C 94% Calm Calm -- 29.95 in1014.2 mb 0.00 in0.0 mm 0.00 in0.0 mm 0.00 in0.0 mm
02:21 AM 46.8°F8.2°C 45.3°F7.4°C 95% Calm Calm -- 29.94 in1013.9 mb 0.00 in0.0 mm 0.00 in0.0 mm 0.00 in0.0 mm
02:26 AM 46.6°F8.1°C 45.0°F7.2°C 94% Calm Calm 1.1 mph1.8 kmh 29.94 in1013.9 mb 0.00 in0.0 mm 0.00 in0.0 mm 0.00 in0.0 mm
02:31 AM 46.0°F7.8°C 44.4°F6.9°C 94% Calm Calm -- 29.93 in1013.5 mb 0.00 in0.0 mm 0.00 in0.0 mm 0.00 in0.0 mm
02:36 AM 45.9°F7.7°C 44.2°F6.8°C 94% Calm Calm -- 29.93 in1013.5 mb 0.00 in0.0 mm 0.00 in0.0 mm 0.00 in0.0 mm
02:41 AM 45.7°F7.6°C 44.1°F6.7°C 94% Calm Calm -- 29.93 in1013.5 mb 0.00 in0.0 mm 0.00 in0.0 mm 0.00 in0.0 mm
02:46 AM 45.9°F7.7°C 44.4°F6.9°C 95% Calm Calm -- 29.93 in1013.5 mb 0.00 in0.0 mm 0.00 in0.0 mm 0.00 in0.0 mm
02:51 AM 45.9°F7.7°C 44.4°F6.9°C 95% Calm Calm -- 29.93 in1013.5 mb 0.00 in0.0 mm 0.00 in0.0 mm 0.00 in0.0 mm
02:56 AM 45.9°F7.7°C 44.4°F6.9°C 95% Calm Calm -- 29.93 in1013.5 mb 0.00 in0.0 mm 0.00 in0.0 mm 0.00 in0.0 mm
03:01 AM 45.9°F7.7°C 44.4°F6.9°C 95% Calm Calm -- 29.92 in1013.2 mb 0.00 in0.0 mm 0.00 in0.0 mm 0.00 in0.0 mm
03:06 AM 45.9°F7.7°C 44.4°F6.9°C 95% Calm Calm -- 29.92 in1013.2 mb 0.00 in0.0 mm 0.00 in0.0 mm 0.00 in0.0 mm
03:11 AM 45.7°F7.6°C 44.4°F6.9°C 95% Calm Calm -- 29.92 in1013.2 mb 0.00 in0.0 mm 0.00 in0.0 mm 0.00 in0.0 mm
03:16 AM 45.7°F7.6°C 44.4°F6.9°C 95% Calm Calm -- 29.92 in1013.2 mb 0.00 in0.0 mm 0.00 in0.0 mm 0.00 in0.0 mm
03:21 AM 45.5°F7.5°C 44.2°F6.8°C 95% Calm Calm -- 29.92 in1013.2 mb 0.00 in0.0 mm 0.00 in0.0 mm 0.00 in0.0 mm
03:26 AM 45.3°F7.4°C 44.1°F6.7°C 95% Calm Calm -- 29.92 in1013.2 mb 0.00 in0.0 mm 0.00 in0.0 mm 0.00 in0.0 mm
03:31 AM 45.1°F7.3°C 43.9°F6.6°C 95% Calm Calm -- 29.92 in1013.2 mb 0.00 in0.0 mm 0.00 in0.0 mm 0.00 in0.0 mm
03:36 AM 45.0°F7.2°C 43.7°F6.5°C 95% Calm Calm -- 29.92 in1013.2 mb 0.00 in0.0 mm 0.00 in0.0 mm 0.00 in0.0 mm
03:41 AM 44.8°F7.1°C 43.5°F6.4°C 95% Calm Calm -- 29.91 in1012.9 mb 0.00 in0.0 mm 0.00 in0.0 mm 0.00 in0.0 mm
03:46 AM 44.8°F7.1°C 43.5°F6.4°C 95% Calm Calm 1.1 mph1.8 kmh 29.91 in1012.9 mb 0.00 in0.0 mm 0.00 in0.0 mm 0.00 in0.0 mm
03:51 AM 44.8°F7.1°C 43.5°F6.4°C 95% Calm Calm -- 29.91 in1012.9 mb 0.00 in0.0 mm 0.00 in0.0 mm 0.00 in0.0 mm
03:56 AM 44.6°F7.0°C 43.3°F6.3°C 95% Calm Calm -- 29.91 in1012.9 mb 0.00 in0.0 mm 0.00 in0.0 mm 0.00 in0.0 mm
04:01 AM 44.4°F6.9°C 43.2°F6.2°C 95% Calm Calm -- 29.92 in1013.2 mb 0.00 in0.0 mm 0.00 in0.0 mm 0.00 in0.0 mm
04:06 AM 44.6°F7.0°C 43.3°F6.3°C 95% Calm Calm -- 29.91 in1012.9 mb 0.00 in0.0 mm 0.00 in0.0 mm 0.00 in0.0 mm
04:11 AM 44.8°F7.1°C 43.7°F6.5°C 96% Calm Calm -- 29.92 in1013.2 mb 0.00 in0.0 mm 0.00 in0.0 mm 0.00 in0.0 mm
04:16 AM 45.0°F7.2°C 43.9°F6.6°C 96% Calm Calm -- 29.92 in1013.2 mb 0.00 in0.0 mm 0.00 in0.0 mm 0.00 in0.0 mm
04:21 AM 45.0°F7.2°C 43.9°F6.6°C 96% Calm Calm -- 29.92 in1013.2 mb 0.00 in0.0 mm 0.00 in0.0 mm 0.00 in0.0 mm
04:26 AM 44.8°F7.1°C 43.7°F6.5°C 96% Calm Calm -- 29.92 in1013.2 mb 0.00 in0.0 mm 0.00 in0.0 mm 0.00 in0.0 mm
04:31 AM 45.0°F7.2°C 43.9°F6.6°C 96% Calm Calm -- 29.92 in1013.2 mb 0.00 in0.0 mm 0.00 in0.0 mm 0.00 in0.0 mm
04:36 AM 45.1°F7.3°C 44.1°F6.7°C 96% Calm Calm -- 29.92 in1013.2 mb 0.00 in0.0 mm 0.00 in0.0 mm 0.00 in0.0 mm
04:41 AM 45.1°F7.3°C 44.1°F6.7°C 96% Calm Calm -- 29.92 in1013.2 mb 0.00 in0.0 mm 0.00 in0.0 mm 0.00 in0.0 mm
04:46 AM 44.8°F7.1°C 43.5°F6.4°C 95% Calm Calm -- 29.91 in1012.9 mb 0.00 in0.0 mm 0.00 in0.0 mm 0.00 in0.0 mm
04:51 AM 44.4°F6.9°C 43.2°F6.2°C 95% Calm Calm -- 29.92 in1013.2 mb 0.00 in0.0 mm 0.00 in0.0 mm 0.00 in0.0 mm
04:56 AM 44.4°F6.9°C 43.2°F6.2°C 95% Calm Calm -- 29.92 in1013.2 mb 0.00 in0.0 mm 0.00 in0.0 mm 0.00 in0.0 mm
05:01 AM 44.4°F6.9°C 43.2°F6.2°C 95% Calm Calm -- 29.92 in1013.2 mb 0.00 in0.0 mm 0.00 in0.0 mm 0.00 in0.0 mm
05:06 AM 44.2°F6.8°C 43.0°F6.1°C 95% Calm Calm -- 29.93 in1013.5 mb 0.00 in0.0 mm 0.00 in0.0 mm 0.00 in0.0 mm
05:11 AM 44.2°F6.8°C 43.2°F6.2°C 96% Calm Calm -- 29.93 in1013.5 mb 0.00 in0.0 mm 0.00 in0.0 mm 0.00 in0.0 mm
05:16 AM 44.4°F6.9°C 43.3°F6.3°C 96% Calm Calm -- 29.92 in1013.2 mb 0.00 in0.0 mm 0.00 in0.0 mm 0.00 in0.0 mm
05:21 AM 44.4°F6.9°C 43.3°F6.3°C 96% Calm Calm 2.0 mph3.2 kmh 29.92 in1013.2 mb 0.00 in0.0 mm 0.00 in0.0 mm 0.00 in0.0 mm
05:26 AM 44.1°F6.7°C 42.8°F6.0°C 95% Calm Calm -- 29.93 in1013.5 mb 0.00 in0.0 mm 0.00 in0.0 mm 0.00 in0.0 mm
05:31 AM 43.9°F6.6°C 42.6°F5.9°C 95% Calm Calm -- 29.93 in1013.5 mb 0.00 in0.0 mm 0.00 in0.0 mm 0.00 in0.0 mm
05:36 AM 43.9°F6.6°C 42.6°F5.9°C 95% Calm Calm -- 29.93 in1013.5 mb 0.00 in0.0 mm 0.00 in0.0 mm 0.00 in0.0 mm
05:41 AM 43.9°F6.6°C 42.8°F6.0°C 96% Calm Calm -- 29.93 in1013.5 mb 0.00 in0.0 mm 0.00 in0.0 mm 0.00 in0.0 mm
05:46 AM 44.1°F6.7°C 43.0°F6.1°C 96% Calm Calm -- 29.94 in1013.9 mb 0.00 in0.0 mm 0.00 in0.0 mm 0.00 in0.0 mm
05:51 AM 44.1°F6.7°C 43.0°F6.1°C 96% Calm Calm -- 29.94 in1013.9 mb 0.00 in0.0 mm 0.00 in0.0 mm 0.00 in0.0 mm
05:56 AM 44.1°F6.7°C 43.0°F6.1°C 96% Calm Calm 1.1 mph1.8 kmh 29.93 in1013.5 mb 0.00 in0.0 mm 0.00 in0.0 mm 0.00 in0.0 mm
06:01 AM 43.9°F6.6°C 42.6°F5.9°C 95% Calm Calm -- 29.93 in1013.5 mb 0.00 in0.0 mm 0.00 in0.0 mm 0.00 in0.0 mm
06:06 AM 43.5°F6.4°C 42.3°F5.7°C 95% Calm Calm -- 29.93 in1013.5 mb 0.00 in0.0 mm 0.00 in0.0 mm 0.00 in0.0 mm
06:11 AM 43.3°F6.3°C 42.1°F5.6°C 95% Calm Calm -- 29.93 in1013.5 mb 0.00 in0.0 mm 0.00 in0.0 mm 0.00 in0.0 mm
06:16 AM 43.2°F6.2°C 42.1°F5.6°C 96% Calm Calm -- 29.93 in1013.5 mb 0.00 in0.0 mm 0.00 in0.0 mm 0.00 in0.0 mm
06:21 AM 43.2°F6.2°C 42.1°F5.6°C 96% Calm Calm -- 29.93 in1013.5 mb 0.00 in0.0 mm 0.00 in0.0 mm 0.00 in0.0 mm
06:26 AM 43.3°F6.3°C 42.3°F5.7°C 96% Calm Calm -- 29.94 in1013.9 mb 0.00 in0.0 mm 0.00 in0.0 mm 0.00 in0.0 mm
06:31 AM 43.9°F6.6°C 42.8°F6.0°C 96% Calm Calm 1.1 mph1.8 kmh 29.95 in1014.2 mb 0.00 in0.0 mm 0.00 in0.0 mm 0.00 in0.0 mm
06:36 AM 44.1°F6.7°C 43.0°F6.1°C 96% Calm Calm -- 29.95 in1014.2 mb 0.00 in0.0 mm 0.00 in0.0 mm 0.00 in0.0 mm
06:41 AM 44.2°F6.8°C 43.2°F6.2°C 96% Calm Calm -- 29.95 in1014.2 mb 0.00 in0.0 mm 0.00 in0.0 mm 0.00 in0.0 mm
06:46 AM 44.4°F6.9°C 43.3°F6.3°C 96% Calm Calm 2.0 mph3.2 kmh 29.95 in1014.2 mb 0.00 in0.0 mm 0.00 in0.0 mm 0.00 in0.0 mm
06:51 AM 44.8°F7.1°C 43.7°F6.5°C 96% Calm Calm 2.0 mph3.2 kmh 29.95 in1014.2 mb 0.00 in0.0 mm 0.00 in0.0 mm 0.00 in0.0 mm
06:56 AM 44.8°F7.1°C 43.7°F6.5°C 96% Calm Calm 1.1 mph1.8 kmh 29.96 in1014.6 mb 0.00 in0.0 mm 0.00 in0.0 mm 0.00 in0.0 mm
07:01 AM 45.1°F7.3°C 44.1°F6.7°C 96% Calm Calm -- 29.96 in1014.6 mb 0.00 in0.0 mm 0.00 in0.0 mm 0.00 in0.0 mm
07:06 AM 45.3°F7.4°C 44.2°F6.8°C 96% Calm Calm -- 29.96 in1014.6 mb 0.00 in0.0 mm 0.00 in0.0 mm 0.00 in0.0 mm
07:11 AM 45.7°F7.6°C 44.6°F7.0°C 96% Calm Calm -- 29.96 in1014.6 mb 0.00 in0.0 mm 0.00 in0.0 mm 0.00 in0.0 mm
07:16 AM 46.0°F7.8°C 45.0°F7.2°C 96% Calm Calm -- 29.97 in1014.9 mb 0.00 in0.0 mm 0.00 in0.0 mm 0.00 in0.0 mm
07:21 AM 46.2°F7.9°C 45.1°F7.3°C 96% Calm Calm -- 29.96 in1014.6 mb 0.00 in0.0 mm 0.00 in0.0 mm 0.00 in0.0 mm
07:26 AM 46.6°F8.1°C 45.5°F7.5°C 96% Calm Calm -- 29.96 in1014.6 mb 0.00 in0.0 mm 0.00 in0.0 mm 0.00 in0.0 mm
07:31 AM 46.9°F8.3°C 45.9°F7.7°C 96% Calm Calm 1.1 mph1.8 kmh 29.96 in1014.6 mb 0.00 in0.0 mm 0.00 in0.0 mm 0.00 in0.0 mm
07:36 AM 47.3°F8.5°C 46.2°F7.9°C 96% Calm Calm 1.1 mph1.8 kmh 29.96 in1014.6 mb 0.00 in0.0 mm 0.00 in0.0 mm 0.00 in0.0 mm
07:41 AM 47.8°F8.8°C 46.8°F8.2°C 96% Calm Calm 1.1 mph1.8 kmh 29.96 in1014.6 mb 0.00 in0.0 mm 0.00 in0.0 mm 0.00 in0.0 mm
07:46 AM 48.0°F8.9°C 46.9°F8.3°C 96% Calm Calm -- 29.96 in1014.6 mb 0.00 in0.0 mm 0.00 in0.0 mm 0.00 in0.0 mm
07:51 AM 48.6°F9.2°C 47.5°F8.6°C 96% 0.2 mph NE0.3 kmh NE 2.0 mph3.2 kmh 29.96 in1014.6 mb 0.00 in0.0 mm 0.00 in0.0 mm 0.00 in0.0 mm
07:56 AM 49.3°F9.6°C 47.8°F8.8°C 95% Calm Calm 2.0 mph3.2 kmh 29.96 in1014.6 mb 0.00 in0.0 mm 0.00 in0.0 mm 0.00 in0.0 mm
08:01 AM 49.6°F9.8°C 48.2°F9.0°C 95% Calm Calm -- 29.96 in1014.6 mb 0.00 in0.0 mm 0.00 in0.0 mm 0.00 in0.0 mm
08:06 AM 50.2°F10.1°C 48.6°F9.2°C 94% 0.2 mph NW0.3 kmh NW 1.1 mph1.8 kmh 29.96 in1014.6 mb 0.00 in0.0 mm 0.00 in0.0 mm 0.00 in0.0 mm
08:11 AM 50.5°F10.3°C 48.6°F9.2°C 93% 0.2 mph NW0.3 kmh NW 1.1 mph1.8 kmh 29.96 in1014.6 mb 0.00 in0.0 mm 0.00 in0.0 mm 0.00 in0.0 mm
08:16 AM 51.3°F10.7°C 48.7°F9.3°C 91% Calm Calm 2.0 mph3.2 kmh 29.96 in1014.6 mb 0.00 in0.0 mm 0.00 in0.0 mm 0.00 in0.0 mm
08:21 AM 52.0°F11.1°C 48.9°F9.4°C 89% Calm Calm -- 29.96 in1014.6 mb 0.00 in0.0 mm 0.00 in0.0 mm 0.00 in0.0 mm
08:26 AM 52.7°F11.5°C 48.6°F9.2°C 86% Calm Calm 1.1 mph1.8 kmh 29.96 in1014.6 mb 0.00 in0.0 mm 0.00 in0.0 mm 0.00 in0.0 mm
08:31 AM 53.4°F11.9°C 48.0°F8.9°C 82% Calm Calm 3.1 mph5.0 kmh 29.96 in1014.6 mb 0.00 in0.0 mm 0.00 in0.0 mm 0.00 in0.0 mm
08:36 AM 54.0°F12.2°C 47.3°F8.5°C 78% Calm Calm 3.1 mph5.0 kmh 29.97 in1014.9 mb 0.00 in0.0 mm 0.00 in0.0 mm 0.00 in0.0 mm
08:41 AM 54.7°F12.6°C 46.6°F8.1°C 74% 0.9 mph NNE1.4 kmh NNE 3.1 mph5.0 kmh 29.97 in1014.9 mb 0.00 in0.0 mm 0.00 in0.0 mm 0.00 in0.0 mm
08:46 AM 55.6°F13.1°C 47.5°F8.6°C 74% 0.4 mph W0.6 kmh W 2.0 mph3.2 kmh 29.97 in1014.9 mb 0.00 in0.0 mm 0.00 in0.0 mm 0.00 in0.0 mm
08:51 AM 56.3°F13.5°C 48.9°F9.4°C 76% 0.2 mph NW0.3 kmh NW 1.1 mph1.8 kmh 29.97 in1014.9 mb 0.00 in0.0 mm 0.00 in0.0 mm 0.00 in0.0 mm
08:56 AM 56.7°F13.7°C 48.7°F9.3°C 75% 0.4 mph WNW0.6 kmh WNW 3.1 mph5.0 kmh 29.97 in1014.9 mb 0.00 in0.0 mm 0.00 in0.0 mm 0.00 in0.0 mm
09:01 AM 56.8°F13.8°C 49.3°F9.6°C 76% Calm Calm 3.1 mph5.0 kmh 29.97 in1014.9 mb 0.00 in0.0 mm 0.00 in0.0 mm 0.00 in0.0 mm
09:06 AM 57.2°F14.0°C 48.9°F9.4°C 74% Calm Calm -- 29.96 in1014.6 mb 0.00 in0.0 mm 0.00 in0.0 mm 0.00 in0.0 mm
09:11 AM 57.9°F14.4°C 49.3°F9.6°C 73% Calm Calm -- 29.96 in1014.6 mb 0.00 in0.0 mm 0.00 in0.0 mm 0.00 in0.0 mm
09:16 AM 58.6°F14.8°C 49.6°F9.8°C 72% Calm Calm -- 29.96 in1014.6 mb 0.00 in0.0 mm 0.00 in0.0 mm 0.00 in0.0 mm
09:21 AM 59.4°F15.2°C 50.4°F10.2°C 72% 0.2 mph SE0.3 kmh SE 2.0 mph3.2 kmh 29.96 in1014.6 mb 0.00 in0.0 mm 0.00 in0.0 mm 0.00 in0.0 mm
09:26 AM 60.3°F15.7°C 50.0°F10.0°C 69% 0.7 mph SE1.1 kmh SE 2.0 mph3.2 kmh 29.95 in1014.2 mb 0.00 in0.0 mm 0.00 in0.0 mm 0.00 in0.0 mm
09:31 AM 61.3°F16.3°C 51.1°F10.6°C 69% 0.2 mph S0.3 kmh S 3.1 mph5.0 kmh 29.95 in1014.2 mb 0.00 in0.0 mm 0.00 in0.0 mm 0.00 in0.0 mm
09:36 AM 61.9°F16.6°C 49.6°F9.8°C 64% Calm Calm 4.3 mph6.9 kmh 29.95 in1014.2 mb 0.00 in0.0 mm 0.00 in0.0 mm 0.00 in0.0 mm
09:41 AM 62.1°F16.7°C 47.5°F8.6°C 59% 1.3 mph SW2.1 kmh SW 3.1 mph5.0 kmh 29.95 in1014.2 mb 0.00 in0.0 mm 0.00 in0.0 mm 0.00 in0.0 mm
09:46 AM 62.4°F16.9°C 46.9°F8.3°C 57% 0.7 mph SW1.1 kmh SW 3.1 mph5.0 kmh 29.94 in1013.9 mb 0.00 in0.0 mm 0.00 in0.0 mm 0.00 in0.0 mm
09:51 AM 62.8°F17.1°C 46.4°F8.0°C 55% 0.2 mph SE0.3 kmh SE 2.0 mph3.2 kmh 29.95 in1014.2 mb 0.00 in0.0 mm 0.00 in0.0 mm 0.00 in0.0 mm
09:56 AM 63.3°F17.4°C 45.9°F7.7°C 53% Calm Calm 2.0 mph3.2 kmh 29.94 in1013.9 mb 0.00 in0.0 mm 0.00 in0.0 mm 0.00 in0.0 mm
10:01 AM 63.7°F17.6°C 45.7°F7.6°C 52% 0.9 mph SSW1.4 kmh SSW 3.1 mph5.0 kmh 29.95 in1014.2 mb 0.00 in0.0 mm 0.00 in0.0 mm 0.00 in0.0 mm
10:06 AM 63.9°F17.7°C 44.8°F7.1°C 50% 0.4 mph SW0.6 kmh SW 3.1 mph5.0 kmh 29.95 in1014.2 mb 0.00 in0.0 mm 0.00 in0.0 mm 0.00 in0.0 mm
10:11 AM 64.2°F17.9°C 44.6°F7.0°C 49% 0.4 mph SE0.6 kmh SE 4.3 mph6.9 kmh 29.95 in1014.2 mb 0.00 in0.0 mm 0.00 in0.0 mm 0.00 in0.0 mm
10:16 AM 64.6°F18.1°C 46.0°F7.8°C 51% 2.7 mph SSE4.3 kmh SSE 6.3 mph10.1 kmh 29.95 in1014.2 mb 0.00 in0.0 mm 0.00 in0.0 mm 0.00 in0.0 mm
10:21 AM 64.8°F18.2°C 45.7°F7.6°C 50% 2.7 mph SSW4.3 kmh SSW 7.4 mph11.9 kmh 29.95 in1014.2 mb 0.00 in0.0 mm 0.00 in0.0 mm 0.00 in0.0 mm
10:26 AM 64.6°F18.1°C 46.6°F8.1°C 52% 2.7 mph WSW4.3 kmh WSW 6.3 mph10.1 kmh 29.95 in1014.2 mb 0.00 in0.0 mm 0.00 in0.0 mm 0.00 in0.0 mm
10:31 AM 64.8°F18.2°C 47.7°F8.7°C 54% 2.5 mph SW4.0 kmh SW 8.5 mph13.7 kmh 29.95 in1014.2 mb 0.00 in0.0 mm 0.00 in0.0 mm 0.00 in0.0 mm
10:36 AM 64.9°F18.3°C 46.9°F8.3°C 52% 0.4 mph SSW0.6 kmh SSW 8.5 mph13.7 kmh 29.95 in1014.2 mb 0.00 in0.0 mm 0.00 in0.0 mm 0.00 in0.0 mm
10:41 AM 65.1°F18.4°C 46.6°F8.1°C 51% 1.3 mph WSW2.1 kmh WSW 6.3 mph10.1 kmh 29.94 in1013.9 mb 0.00 in0.0 mm 0.00 in0.0 mm 0.00 in0.0 mm
10:46 AM 65.5°F18.6°C 46.4°F8.0°C 50% 2.5 mph SW4.0 kmh SW 7.4 mph11.9 kmh 29.94 in1013.9 mb 0.00 in0.0 mm 0.00 in0.0 mm 0.00 in0.0 mm
10:51 AM 66.0°F18.9°C 45.7°F7.6°C 48% 1.1 mph SE1.8 kmh SE 5.4 mph8.7 kmh 29.94 in1013.9 mb 0.00 in0.0 mm 0.00 in0.0 mm 0.00 in0.0 mm
10:56 AM 66.7°F19.3°C 48.0°F8.9°C 51% 0.9 mph SW1.4 kmh SW 4.3 mph6.9 kmh 29.94 in1013.9 mb 0.00 in0.0 mm 0.00 in0.0 mm 0.00 in0.0 mm
11:01 AM 66.9°F19.4°C 45.5°F7.5°C 46% 3.6 mph SW5.8 kmh SW 8.5 mph13.7 kmh 29.94 in1013.9 mb 0.00 in0.0 mm 0.00 in0.0 mm 0.00 in0.0 mm
11:06 AM 67.1°F19.5°C 46.8°F8.2°C 48% 3.1 mph SW5.0 kmh SW 6.3 mph10.1 kmh 29.95 in1014.2 mb 0.00 in0.0 mm 0.00 in0.0 mm 0.00 in0.0 mm
11:11 AM 67.5°F19.7°C 47.7°F8.7°C 49% 2.9 mph SW4.7 kmh SW 6.3 mph10.1 kmh 29.95 in1014.2 mb 0.00 in0.0 mm 0.00 in0.0 mm 0.00 in0.0 mm
11:16 AM 67.5°F19.7°C 46.6°F8.1°C 47% 2.7 mph WSW4.3 kmh WSW 8.5 mph13.7 kmh 29.95 in1014.2 mb 0.00 in0.0 mm 0.00 in0.0 mm 0.00 in0.0 mm
11:21 AM 67.6°F19.8°C 47.3°F8.5°C 48% 1.8 mph SE2.9 kmh SE 8.5 mph13.7 kmh 29.94 in1013.9 mb 0.00 in0.0 mm 0.00 in0.0 mm 0.00 in0.0 mm
11:26 AM 67.8°F19.9°C 46.9°F8.3°C 47% 4.3 mph SW6.9 kmh SW 7.4 mph11.9 kmh 29.95 in1014.2 mb 0.00 in0.0 mm 0.00 in0.0 mm 0.00 in0.0 mm
11:31 AM 67.8°F19.9°C 46.9°F8.3°C 47% 4.7 mph SW7.6 kmh SW 8.5 mph13.7 kmh 29.95 in1014.2 mb 0.00 in0.0 mm 0.00 in0.0 mm 0.00 in0.0 mm
11:36 AM 67.8°F19.9°C 46.9°F8.3°C 47% 5.6 mph SW9.0 kmh SW 8.5 mph13.7 kmh 29.95 in1014.2 mb 0.00 in0.0 mm 0.00 in0.0 mm 0.00 in0.0 mm
11:41 AM 68.2°F20.1°C 46.0°F7.8°C 45% 4.3 mph SW6.9 kmh SW 9.6 mph15.4 kmh 29.95 in1014.2 mb 0.00 in0.0 mm 0.00 in0.0 mm 0.00 in0.0 mm
11:46 AM 68.5°F20.3°C 46.4°F8.0°C 45% 6.7 mph SW10.8 kmh SW 10.5 mph16.9 kmh 29.95 in1014.2 mb 0.00 in0.0 mm 0.00 in0.0 mm 0.00 in0.0 mm
11:51 AM 68.7°F20.4°C 47.7°F8.7°C 47% 4.7 mph SW7.6 kmh SW 8.5 mph13.7 kmh 29.95 in1014.2 mb 0.00 in0.0 mm 0.00 in0.0 mm 0.00 in0.0 mm
11:56 AM 68.7°F20.4°C 45.9°F7.7°C 44% 6.0 mph SW9.7 kmh SW 9.6 mph15.4 kmh 29.95 in1014.2 mb 0.00 in0.0 mm 0.00 in0.0 mm 0.00 in0.0 mm
12:01 PM 68.5°F20.3°C 46.9°F8.3°C 46% 4.0 mph SW6.4 kmh SW 12.8 mph20.6 kmh 29.95 in1014.2 mb 0.00 in0.0 mm 0.00 in0.0 mm 0.00 in0.0 mm
12:06 PM 68.5°F20.3°C 45.7°F7.6°C 44% 4.3 mph SW6.9 kmh SW 8.5 mph13.7 kmh 29.95 in1014.2 mb 0.00 in0.0 mm 0.00 in0.0 mm 0.00 in0.0 mm
12:11 PM 68.7°F20.4°C 48.7°F9.3°C 49% 4.3 mph SW6.9 kmh SW 8.5 mph13.7 kmh 29.94 in1013.9 mb 0.00 in0.0 mm 0.00 in0.0 mm 0.00 in0.0 mm
12:16 PM 68.9°F20.5°C 48.4°F9.1°C 48% 2.5 mph E4.0 kmh E 7.4 mph11.9 kmh 29.94 in1013.9 mb 0.00 in0.0 mm 0.00 in0.0 mm 0.00 in0.0 mm
12:21 PM 69.1°F20.6°C 50.7°F10.4°C 52% 2.9 mph WSW4.7 kmh WSW 7.4 mph11.9 kmh 29.94 in1013.9 mb 0.00 in0.0 mm 0.00 in0.0 mm 0.00 in0.0 mm
12:26 PM 68.5°F20.3°C 51.3°F10.7°C 54% 3.8 mph SW6.1 kmh SW 9.6 mph15.4 kmh 29.93 in1013.5 mb 0.00 in0.0 mm 0.00 in0.0 mm 0.00 in0.0 mm
12:31 PM 68.9°F20.5°C 51.1°F10.6°C 53% 2.5 mph NNW4.0 kmh NNW 7.4 mph11.9 kmh 29.93 in1013.5 mb 0.00 in0.0 mm 0.00 in0.0 mm 0.00 in0.0 mm
12:36 PM 69.3°F20.7°C 49.3°F9.6°C 49% 3.6 mph SE5.8 kmh SE 6.3 mph10.1 kmh 29.93 in1013.5 mb 0.00 in0.0 mm 0.00 in0.0 mm 0.00 in0.0 mm
12:41 PM 69.6°F20.9°C 50.2°F10.1°C 50% 2.9 mph SSW4.7 kmh SSW 6.3 mph10.1 kmh 29.92 in1013.2 mb 0.00 in0.0 mm 0.00 in0.0 mm 0.00 in0.0 mm
12:46 PM 69.4°F20.8°C 50.5°F10.3°C 51% 1.6 mph NW2.6 kmh NW 6.3 mph10.1 kmh 29.92 in1013.2 mb 0.00 in0.0 mm 0.00 in0.0 mm 0.00 in0.0 mm
12:51 PM 69.4°F20.8°C 51.6°F10.9°C 53% 2.2 mph SW3.5 kmh SW 4.3 mph6.9 kmh 29.91 in1012.9 mb 0.00 in0.0 mm 0.00 in0.0 mm 0.00 in0.0 mm
12:56 PM 70.2°F21.2°C 52.2°F11.2°C 53% 3.1 mph SW5.0 kmh SW 6.3 mph10.1 kmh 29.91 in1012.9 mb 0.00 in0.0 mm 0.00 in0.0 mm 0.00 in0.0 mm
01:01 PM 70.9°F21.6°C 50.7°F10.4°C 49% 4.5 mph W7.2 kmh W 8.5 mph13.7 kmh 29.91 in1012.9 mb 0.00 in0.0 mm 0.00 in0.0 mm 0.00 in0.0 mm
01:06 PM 70.5°F21.4°C 49.8°F9.9°C 48% 3.6 mph SSW5.8 kmh SSW 7.4 mph11.9 kmh 29.91 in1012.9 mb 0.00 in0.0 mm 0.00 in0.0 mm 0.00 in0.0 mm
01:11 PM 71.4°F21.9°C 49.6°F9.8°C 46% 3.8 mph SW6.1 kmh SW 6.3 mph10.1 kmh 29.91 in1012.9 mb 0.00 in0.0 mm 0.00 in0.0 mm 0.00 in0.0 mm
01:16 PM 70.5°F21.4°C 48.7°F9.3°C 46% 6.3 mph SW10.1 kmh SW 9.6 mph15.4 kmh 29.91 in1012.9 mb 0.00 in0.0 mm 0.00 in0.0 mm 0.00 in0.0 mm
01:21 PM 71.1°F21.7°C 50.4°F10.2°C 48% 4.9 mph W7.9 kmh W 8.5 mph13.7 kmh 29.91 in1012.9 mb 0.00 in0.0 mm 0.00 in0.0 mm 0.00 in0.0 mm
01:26 PM 70.3°F21.3°C 49.1°F9.5°C 47% 3.6 mph WNW5.8 kmh WNW 7.4 mph11.9 kmh 29.91 in1012.9 mb 0.00 in0.0 mm 0.00 in0.0 mm 0.00 in0.0 mm
01:31 PM 70.2°F21.2°C 50.2°F10.1°C 49% 4.7 mph SW7.6 kmh SW 6.3 mph10.1 kmh 29.91 in1012.9 mb 0.00 in0.0 mm 0.00 in0.0 mm 0.00 in0.0 mm
01:36 PM 70.0°F21.1°C 50.0°F10.0°C 49% 6.5 mph WSW10.5 kmh WSW 9.6 mph15.4 kmh 29.91 in1012.9 mb 0.00 in0.0 mm 0.00 in0.0 mm 0.00 in0.0 mm
01:41 PM 70.0°F21.1°C 50.0°F10.0°C 49% 4.9 mph SW7.9 kmh SW 7.4 mph11.9 kmh 29.91 in1012.9 mb 0.00 in0.0 mm 0.00 in0.0 mm 0.00 in0.0 mm
01:46 PM 69.4°F20.8°C 50.0°F10.0°C 50% 4.3 mph WSW6.9 kmh WSW 10.5 mph16.9 kmh 29.91 in1012.9 mb 0.00 in0.0 mm 0.00 in0.0 mm 0.00 in0.0 mm
01:51 PM 69.4°F20.8°C 50.5°F10.3°C 51% 3.6 mph W5.8 kmh W 7.4 mph11.9 kmh 29.91 in1012.9 mb 0.00 in0.0 mm 0.00 in0.0 mm 0.00 in0.0 mm
01:56 PM 68.5°F20.3°C 50.2°F10.1°C 52% 4.3 mph W6.9 kmh W 10.5 mph16.9 kmh 29.91 in1012.9 mb 0.00 in0.0 mm 0.00 in0.0 mm 0.00 in0.0 mm
02:01 PM 67.5°F19.7°C 50.7°F10.4°C 55% 2.2 mph NW3.5 kmh NW 8.5 mph13.7 kmh 29.91 in1012.9 mb 0.00 in0.0 mm 0.00 in0.0 mm 0.00 in0.0 mm
02:06 PM 66.6°F19.2°C 51.3°F10.7°C 58% 3.6 mph NW5.8 kmh NW 7.4 mph11.9 kmh 29.92 in1013.2 mb 0.00 in0.0 mm 0.00 in0.0 mm 0.00 in0.0 mm
02:11 PM 66.0°F18.9°C 51.3°F10.7°C 59% 2.5 mph W4.0 kmh W 6.3 mph10.1 kmh 29.92 in1013.2 mb 0.00 in0.0 mm 0.00 in0.0 mm 0.00 in0.0 mm
02:16 PM 65.7°F18.7°C 50.5°F10.3°C 58% 4.0 mph WSW6.4 kmh WSW 6.3 mph10.1 kmh 29.92 in1013.2 mb 0.00 in0.0 mm 0.00 in0.0 mm 0.00 in0.0 mm
02:21 PM 65.5°F18.6°C 50.4°F10.2°C 58% 2.5 mph WNW4.0 kmh WNW 6.3 mph10.1 kmh 29.93 in1013.5 mb 0.00 in0.0 mm 0.00 in0.0 mm 0.00 in0.0 mm
02:26 PM 65.3°F18.5°C 49.6°F9.8°C 57% 4.7 mph WSW7.6 kmh WSW 8.5 mph13.7 kmh 29.94 in1013.9 mb 0.00 in0.0 mm 0.00 in0.0 mm 0.00 in0.0 mm
02:31 PM 65.1°F18.4°C 49.5°F9.7°C 57% 3.4 mph WSW5.5 kmh WSW 8.5 mph13.7 kmh 29.94 in1013.9 mb 0.00 in0.0 mm 0.00 in0.0 mm 0.00 in0.0 mm
02:36 PM 65.1°F18.4°C 50.0°F10.0°C 58% 4.5 mph W7.2 kmh W 10.5 mph16.9 kmh 29.95 in1014.2 mb 0.00 in0.0 mm 0.00 in0.0 mm 0.00 in0.0 mm
02:41 PM 64.4°F18.0°C 49.3°F9.6°C 58% 4.5 mph SW7.2 kmh SW 8.5 mph13.7 kmh 29.96 in1014.6 mb 0.00 in0.0 mm 0.00 in0.0 mm 0.00 in0.0 mm
02:46 PM 63.9°F17.7°C 49.6°F9.8°C 60% 4.9 mph SW7.9 kmh SW 8.5 mph13.7 kmh 29.96 in1014.6 mb 0.00 in0.0 mm 0.00 in0.0 mm 0.00 in0.0 mm
02:51 PM 63.3°F17.4°C 50.0°F10.0°C 62% 2.7 mph SW4.3 kmh SW 6.3 mph10.1 kmh 29.95 in1014.2 mb 0.00 in0.0 mm 0.00 in0.0 mm 0.00 in0.0 mm
02:56 PM 62.6°F17.0°C 51.4°F10.8°C 67% Calm Calm 4.3 mph6.9 kmh 29.93 in1013.5 mb 0.02 in0.5 mm 0.24 in6.1 mm 0.02 in0.5 mm
03:01 PM 62.1°F16.7°C 52.9°F11.6°C 72% Calm Calm 1.1 mph1.8 kmh 29.92 in1013.2 mb 0.02 in0.5 mm 0.00 in0.0 mm 0.02 in0.5 mm
03:06 PM 61.3°F16.3°C 53.8°F12.1°C 76% Calm Calm 1.1 mph1.8 kmh 29.92 in1013.2 mb 0.02 in0.5 mm 0.00 in0.0 mm 0.02 in0.5 mm
03:11 PM 60.8°F16.0°C 53.6°F12.0°C 77% 0.2 mph ESE0.3 kmh ESE 1.1 mph1.8 kmh 29.92 in1013.2 mb 0.02 in0.5 mm 0.00 in0.0 mm 0.02 in0.5 mm
03:16 PM 61.0°F16.1°C 54.5°F12.5°C 79% 1.1 mph SE1.8 kmh SE 3.1 mph5.0 kmh 29.93 in1013.5 mb 0.02 in0.5 mm 0.00 in0.0 mm 0.02 in0.5 mm
03:21 PM 61.0°F16.1°C 54.1°F12.3°C 78% 0.2 mph SSE0.3 kmh SSE 2.0 mph3.2 kmh 29.93 in1013.5 mb 0.02 in0.5 mm 0.00 in0.0 mm 0.02 in0.5 mm
03:26 PM 61.0°F16.1°C 53.8°F12.1°C 77% 3.6 mph SW5.8 kmh SW 9.6 mph15.4 kmh 29.93 in1013.5 mb 0.02 in0.5 mm 0.00 in0.0 mm 0.02 in0.5 mm
03:31 PM 61.0°F16.1°C 52.3°F11.3°C 73% 8.9 mph SSW14.3 kmh SSW 13.9 mph22.4 kmh 29.93 in1013.5 mb 0.02 in0.5 mm 0.00 in0.0 mm 0.02 in0.5 mm
03:36 PM 60.6°F15.9°C 52.7°F11.5°C 75% 5.6 mph S9.0 kmh S 12.8 mph20.6 kmh 29.91 in1012.9 mb 0.02 in0.5 mm 0.00 in0.0 mm 0.02 in0.5 mm
03:41 PM 60.4°F15.8°C 53.2°F11.8°C 77% 1.6 mph SW2.6 kmh SW 9.6 mph15.4 kmh 29.92 in1013.2 mb 0.02 in0.5 mm 0.00 in0.0 mm 0.02 in0.5 mm
03:46 PM 60.3°F15.7°C 53.4°F11.9°C 78% 4.0 mph SW6.4 kmh SW 9.6 mph15.4 kmh 29.91 in1012.9 mb 0.02 in0.5 mm 0.00 in0.0 mm 0.02 in0.5 mm
03:51 PM 60.1°F15.6°C 53.2°F11.8°C 78% 3.1 mph SW5.0 kmh SW 7.4 mph11.9 kmh 29.91 in1012.9 mb 0.02 in0.5 mm 0.00 in0.0 mm 0.02 in0.5 mm
03:56 PM 60.3°F15.7°C 53.4°F11.9°C 78% 1.1 mph W1.8 kmh W 4.3 mph6.9 kmh 29.90 in1012.5 mb 0.00 in0.0 mm 0.00 in0.0 mm 0.02 in0.5 mm
04:01 PM 60.4°F15.8°C 52.9°F11.6°C 76% 0.9 mph WNW1.4 kmh WNW 4.3 mph6.9 kmh 29.89 in1012.2 mb 0.00 in0.0 mm 0.00 in0.0 mm 0.02 in0.5 mm
04:06 PM 60.8°F16.0°C 53.2°F11.8°C 76% Calm Calm -- 29.88 in1011.9 mb 0.00 in0.0 mm 0.00 in0.0 mm 0.02 in0.5 mm
04:11 PM 61.5°F16.4°C 54.0°F12.2°C 76% 2.7 mph NW4.3 kmh NW 5.4 mph8.7 kmh 29.88 in1011.9 mb 0.00 in0.0 mm 0.00 in0.0 mm 0.02 in0.5 mm
04:16 PM 61.5°F16.4°C 53.6°F12.0°C 75% 5.6 mph NW9.0 kmh NW 8.5 mph13.7 kmh 29.90 in1012.5 mb 0.00 in0.0 mm 0.00 in0.0 mm 0.02 in0.5 mm
04:21 PM 61.2°F16.2°C 53.6°F12.0°C 76% 6.3 mph NW10.1 kmh NW 9.6 mph15.4 kmh 29.91 in1012.9 mb 0.00 in0.0 mm 0.00 in0.0 mm 0.02 in0.5 mm
04:26 PM 61.2°F16.2°C 54.0°F12.2°C 77% 3.6 mph WNW5.8 kmh WNW 8.5 mph13.7 kmh 29.91 in1012.9 mb 0.00 in0.0 mm 0.00 in0.0 mm 0.02 in0.5 mm
04:31 PM 60.8°F16.0°C 53.2°F11.8°C 76% 5.1 mph WNW8.2 kmh WNW 9.6 mph15.4 kmh 29.93 in1013.5 mb 0.00 in0.0 mm 0.00 in0.0 mm 0.02 in0.5 mm
04:36 PM 60.4°F15.8°C 52.5°F11.4°C 75% 6.9 mph WSW11.1 kmh WSW 10.5 mph16.9 kmh 29.94 in1013.9 mb 0.00 in0.0 mm 0.00 in0.0 mm 0.02 in0.5 mm
04:41 PM 60.3°F15.7°C 52.7°F11.5°C 76% 3.1 mph SW5.0 kmh SW 12.8 mph20.6 kmh 29.94 in1013.9 mb 0.00 in0.0 mm 0.00 in0.0 mm 0.02 in0.5 mm
04:46 PM 60.1°F15.6°C 52.5°F11.4°C 76% 6.0 mph SW9.7 kmh SW 11.6 mph18.7 kmh 29.95 in1014.2 mb 0.00 in0.0 mm 0.00 in0.0 mm 0.02 in0.5 mm
04:51 PM 59.5°F15.3°C 52.3°F11.3°C 77% 5.1 mph WNW8.2 kmh WNW 12.8 mph20.6 kmh 29.95 in1014.2 mb 0.00 in0.0 mm 0.00 in0.0 mm 0.02 in0.5 mm
04:56 PM 59.4°F15.2°C 52.5°F11.4°C 78% 6.5 mph NW10.5 kmh NW 12.8 mph20.6 kmh 29.95 in1014.2 mb 0.00 in0.0 mm 0.00 in0.0 mm 0.02 in0.5 mm
05:01 PM 58.8°F14.9°C 52.3°F11.3°C 79% 5.1 mph SW8.2 kmh SW 11.6 mph18.7 kmh 29.95 in1014.2 mb 0.00 in0.0 mm 0.00 in0.0 mm 0.02 in0.5 mm
05:06 PM 58.5°F14.7°C 52.7°F11.5°C 81% 4.0 mph WNW6.4 kmh WNW 11.6 mph18.7 kmh 29.96 in1014.6 mb 0.00 in0.0 mm 0.00 in0.0 mm 0.02 in0.5 mm
05:11 PM 58.1°F14.5°C 52.7°F11.5°C 82% 4.9 mph W7.9 kmh W 12.8 mph20.6 kmh 29.97 in1014.9 mb 0.00 in0.0 mm 0.00 in0.0 mm 0.02 in0.5 mm
05:16 PM 57.7°F14.3°C 52.7°F11.5°C 83% 5.1 mph NW8.2 kmh NW 10.5 mph16.9 kmh 29.99 in1015.6 mb 0.00 in0.0 mm 0.00 in0.0 mm 0.02 in0.5 mm
05:21 PM 57.6°F14.2°C 52.7°F11.5°C 84% 6.9 mph WSW11.1 kmh WSW 18.1 mph29.1 kmh 30.00 in1015.9 mb 0.00 in0.0 mm 0.00 in0.0 mm 0.02 in0.5 mm
05:26 PM 57.4°F14.1°C 52.5°F11.4°C 84% 6.7 mph W10.8 kmh W 17.0 mph27.4 kmh 30.01 in1016.3 mb 0.00 in0.0 mm 0.00 in0.0 mm 0.02 in0.5 mm
05:31 PM 57.0°F13.9°C 52.5°F11.4°C 85% 5.6 mph WNW9.0 kmh WNW 13.9 mph22.4 kmh 30.01 in1016.3 mb 0.00 in0.0 mm 0.00 in0.0 mm 0.02 in0.5 mm
05:36 PM 57.0°F13.9°C 52.9°F11.6°C 86% 2.7 mph SE4.3 kmh SE 13.9 mph22.4 kmh 30.02 in1016.6 mb 0.00 in0.0 mm 0.00 in0.0 mm 0.02 in0.5 mm
05:41 PM 57.0°F13.9°C 52.9°F11.6°C 86% 3.8 mph SW6.1 kmh SW 7.4 mph11.9 kmh 30.02 in1016.6 mb 0.00 in0.0 mm 0.00 in0.0 mm 0.02 in0.5 mm
05:46 PM 57.0°F13.9°C 52.9°F11.6°C 86% 1.1 mph WSW1.8 kmh WSW 6.3 mph10.1 kmh 30.02 in1016.6 mb 0.00 in0.0 mm 0.00 in0.0 mm 0.02 in0.5 mm
05:51 PM 56.8°F13.8°C 52.7°F11.5°C 86% 3.1 mph W5.0 kmh W 6.3 mph10.1 kmh 30.01 in1016.3 mb 0.00 in0.0 mm 0.00 in0.0 mm 0.02 in0.5 mm
05:56 PM 56.8°F13.8°C 53.1°F11.7°C 87% 0.4 mph NW0.6 kmh NW 6.3 mph10.1 kmh 30.01 in1016.3 mb 0.00 in0.0 mm 0.00 in0.0 mm 0.02 in0.5 mm
06:01 PM 56.7°F13.7°C 52.5°F11.4°C 86% 4.5 mph WSW7.2 kmh WSW 6.3 mph10.1 kmh 30.01 in1016.3 mb 0.00 in0.0 mm 0.00 in0.0 mm 0.02 in0.5 mm
06:06 PM 56.7°F13.7°C 52.9°F11.6°C 87% Calm Calm 5.4 mph8.7 kmh 30.01 in1016.3 mb 0.00 in0.0 mm 0.00 in0.0 mm 0.02 in0.5 mm
06:11 PM 56.7°F13.7°C 52.9°F11.6°C 87% Calm Calm 1.1 mph1.8 kmh 30.00 in1015.9 mb 0.00 in0.0 mm 0.00 in0.0 mm 0.02 in0.5 mm
06:16 PM 56.7°F13.7°C 52.9°F11.6°C 87% Calm Calm -- 30.00 in1015.9 mb 0.00 in0.0 mm 0.00 in0.0 mm 0.02 in0.5 mm
06:21 PM 56.7°F13.7°C 52.9°F11.6°C 87% 0.4 mph NW0.6 kmh NW 2.0 mph3.2 kmh 30.01 in1016.3 mb 0.00 in0.0 mm 0.00 in0.0 mm 0.02 in0.5 mm
06:26 PM 56.7°F13.7°C 52.9°F11.6°C 87% 0.4 mph ENE0.6 kmh ENE 2.0 mph3.2 kmh 30.00 in1015.9 mb 0.00 in0.0 mm 0.00 in0.0 mm 0.02 in0.5 mm
06:31 PM 56.5°F13.6°C 52.9°F11.6°C 88% 0.7 mph NE1.1 kmh NE 3.1 mph5.0 kmh 29.99 in1015.6 mb 0.00 in0.0 mm 0.00 in0.0 mm 0.02 in0.5 mm
06:36 PM 56.5°F13.6°C 52.9°F11.6°C 88% 0.9 mph W1.4 kmh W 3.1 mph5.0 kmh 29.99 in1015.6 mb 0.00 in0.0 mm 0.00 in0.0 mm 0.02 in0.5 mm
06:41 PM 56.3°F13.5°C 52.9°F11.6°C 88% 0.9 mph NNE1.4 kmh NNE 3.1 mph5.0 kmh 29.99 in1015.6 mb 0.00 in0.0 mm 0.00 in0.0 mm 0.02 in0.5 mm
06:46 PM 56.3°F13.5°C 52.5°F11.4°C 87% 1.1 mph NE1.8 kmh NE 4.3 mph6.9 kmh 29.99 in1015.6 mb 0.00 in0.0 mm 0.00 in0.0 mm 0.02 in0.5 mm
06:51 PM 56.5°F13.6°C 52.7°F11.5°C 87% 1.8 mph N2.9 kmh N 6.3 mph10.1 kmh 29.98 in1015.2 mb 0.00 in0.0 mm 0.00 in0.0 mm 0.02 in0.5 mm
06:56 PM 56.5°F13.6°C 52.7°F11.5°C 87% 1.6 mph NE2.6 kmh NE 5.4 mph8.7 kmh 29.99 in1015.6 mb 0.00 in0.0 mm 0.00 in0.0 mm 0.02 in0.5 mm
07:01 PM 56.7°F13.7°C 52.5°F11.4°C 86% 2.2 mph E3.5 kmh E 5.4 mph8.7 kmh 29.98 in1015.2 mb 0.00 in0.0 mm 0.00 in0.0 mm 0.03 in0.8 mm
07:06 PM 56.7°F13.7°C 52.5°F11.4°C 86% 0.2 mph WSW0.3 kmh WSW 5.4 mph8.7 kmh 29.98 in1015.2 mb 0.01 in0.3 mm 0.12 in3.0 mm 0.03 in0.8 mm
07:11 PM 56.5°F13.6°C 52.3°F11.3°C 86% 3.1 mph E5.0 kmh E 9.6 mph15.4 kmh 29.96 in1014.6 mb 0.01 in0.3 mm 0.00 in0.0 mm 0.03 in0.8 mm
07:16 PM 56.3°F13.5°C 52.5°F11.4°C 87% 1.6 mph NNW2.6 kmh NNW 9.6 mph15.4 kmh 29.94 in1013.9 mb 0.01 in0.3 mm 0.00 in0.0 mm 0.03 in0.8 mm
07:21 PM 56.1°F13.4°C 52.7°F11.5°C 88% 2.2 mph NE3.5 kmh NE 8.5 mph13.7 kmh 29.93 in1013.5 mb 0.01 in0.3 mm 0.00 in0.0 mm 0.03 in0.8 mm
07:26 PM 55.9°F13.3°C 52.5°F11.4°C 88% 1.8 mph E2.9 kmh E 6.3 mph10.1 kmh 29.94 in1013.9 mb 0.01 in0.3 mm 0.00 in0.0 mm 0.03 in0.8 mm
07:31 PM 55.9°F13.3°C 52.2°F11.2°C 87% 3.1 mph ESE5.0 kmh ESE 8.5 mph13.7 kmh 29.94 in1013.9 mb 0.01 in0.3 mm 0.00 in0.0 mm 0.03 in0.8 mm
07:36 PM 55.9°F13.3°C 52.2°F11.2°C 87% 1.6 mph N2.6 kmh N 8.5 mph13.7 kmh 29.95 in1014.2 mb 0.01 in0.3 mm 0.00 in0.0 mm 0.03 in0.8 mm
07:41 PM 55.9°F13.3°C 52.2°F11.2°C 87% 1.1 mph E1.8 kmh E 4.3 mph6.9 kmh 29.95 in1014.2 mb 0.01 in0.3 mm 0.00 in0.0 mm 0.03 in0.8 mm
07:46 PM 55.9°F13.3°C 52.2°F11.2°C 87% 0.4 mph WSW0.6 kmh WSW 3.1 mph5.0 kmh 29.96 in1014.6 mb 0.01 in0.3 mm 0.00 in0.0 mm 0.03 in0.8 mm
07:51 PM 55.9°F13.3°C 51.8°F11.0°C 86% 2.0 mph NE3.2 kmh NE 5.4 mph8.7 kmh 29.94 in1013.9 mb 0.01 in0.3 mm 0.00 in0.0 mm 0.03 in0.8 mm
07:56 PM 56.1°F13.4°C 52.0°F11.1°C 86% 1.6 mph NE2.6 kmh NE 5.4 mph8.7 kmh 29.94 in1013.9 mb 0.01 in0.3 mm 0.00 in0.0 mm 0.03 in0.8 mm
08:01 PM 56.1°F13.4°C 51.6°F10.9°C 85% Calm Calm 2.0 mph3.2 kmh 29.95 in1014.2 mb 0.01 in0.3 mm 0.00 in0.0 mm 0.03 in0.8 mm
08:06 PM 56.1°F13.4°C 51.6°F10.9°C 85% Calm Calm 1.1 mph1.8 kmh 29.95 in1014.2 mb 0.00 in0.0 mm 0.00 in0.0 mm 0.03 in0.8 mm
08:11 PM 56.1°F13.4°C 51.4°F10.8°C 84% Calm Calm -- 29.95 in1014.2 mb 0.00 in0.0 mm 0.00 in0.0 mm 0.03 in0.8 mm
08:16 PM 56.3°F13.5°C 51.4°F10.8°C 84% Calm Calm -- 29.93 in1013.5 mb 0.00 in0.0 mm 0.00 in0.0 mm 0.03 in0.8 mm
08:21 PM 56.5°F13.6°C 51.4°F10.8°C 83% 0.4 mph NNE0.6 kmh NNE 2.0 mph3.2 kmh 29.93 in1013.5 mb 0.00 in0.0 mm 0.00 in0.0 mm 0.03 in0.8 mm
08:26 PM 56.7°F13.7°C 51.3°F10.7°C 82% 1.6 mph ENE2.6 kmh ENE 5.4 mph8.7 kmh 29.93 in1013.5 mb 0.00 in0.0 mm 0.00 in0.0 mm 0.03 in0.8 mm
08:31 PM 56.7°F13.7°C 50.5°F10.3°C 80% 1.8 mph NNE2.9 kmh NNE 5.4 mph8.7 kmh 29.92 in1013.2 mb 0.00 in0.0 mm 0.00 in0.0 mm 0.03 in0.8 mm
08:36 PM 56.8°F13.8°C 50.0°F10.0°C 78% 0.9 mph W1.4 kmh W 5.4 mph8.7 kmh 29.92 in1013.2 mb 0.00 in0.0 mm 0.00 in0.0 mm 0.03 in0.8 mm
08:41 PM 57.0°F13.9°C 49.5°F9.7°C 76% 1.1 mph NE1.8 kmh NE 5.4 mph8.7 kmh 29.91 in1012.9 mb 0.00 in0.0 mm 0.00 in0.0 mm 0.03 in0.8 mm
08:46 PM 57.4°F14.1°C 49.1°F9.5°C 74% 1.3 mph N2.1 kmh N 5.4 mph8.7 kmh 29.91 in1012.9 mb 0.00 in0.0 mm 0.00 in0.0 mm 0.03 in0.8 mm
08:51 PM 57.6°F14.2°C 48.6°F9.2°C 72% 1.8 mph NNE2.9 kmh NNE 4.3 mph6.9 kmh 29.91 in1012.9 mb 0.00 in0.0 mm 0.00 in0.0 mm 0.03 in0.8 mm
08:52 PM 57.4°F14.1°C 48.7°F9.3°C 73% 1.3 mph ENE2.1 kmh ENE -- 29.91 in1012.9 mb 0.00 in0.0 mm 0.00 in0.0 mm 0.03 in0.8 mm
08:57 PM 57.9°F14.4°C 48.6°F9.2°C 71% 1.3 mph NE2.1 kmh NE 5.4 mph8.7 kmh 29.91 in1012.9 mb 0.00 in0.0 mm 0.00 in0.0 mm 0.03 in0.8 mm
09:02 PM 58.1°F14.5°C 48.7°F9.3°C 71% Calm Calm 4.3 mph6.9 kmh 29.91 in1012.9 mb 0.00 in0.0 mm 0.00 in0.0 mm 0.03 in0.8 mm
09:07 PM 58.3°F14.6°C 48.6°F9.2°C 70% Calm Calm 3.1 mph5.0 kmh 29.91 in1012.9 mb 0.00 in0.0 mm 0.00 in0.0 mm 0.03 in0.8 mm
09:12 PM 58.3°F14.6°C 48.6°F9.2°C 70% 0.7 mph E1.1 kmh E 3.1 mph5.0 kmh 29.91 in1012.9 mb 0.00 in0.0 mm 0.00 in0.0 mm 0.03 in0.8 mm
09:17 PM 58.5°F14.7°C 48.0°F8.9°C 68% 0.9 mph NE1.4 kmh NE 3.1 mph5.0 kmh 29.90 in1012.5 mb 0.00 in0.0 mm 0.00 in0.0 mm 0.03 in0.8 mm
09:22 PM 58.8°F14.9°C 47.5°F8.6°C 66% 1.3 mph ENE2.1 kmh ENE 6.3 mph10.1 kmh 29.89 in1012.2 mb 0.00 in0.0 mm 0.00 in0.0 mm 0.03 in0.8 mm
09:27 PM 59.4°F15.2°C 47.7°F8.7°C 65% 0.2 mph ENE0.3 kmh ENE 5.4 mph8.7 kmh 29.90 in1012.5 mb 0.00 in0.0 mm 0.00 in0.0 mm 0.03 in0.8 mm
09:34 PM -- -- - - N N -- -- 0.00 in0.0 mm 0.00 in0.0 mm 0.03 in0.8 mm
09:39 PM 59.5°F15.3°C 46.9°F8.3°C 63% Calm Calm 2.0 mph3.2 kmh 29.90 in1012.5 mb 0.00 in0.0 mm 0.00 in0.0 mm 0.03 in0.8 mm
09:44 PM 59.7°F15.4°C 47.1°F8.4°C 63% 0.2 mph ENE0.3 kmh ENE 2.0 mph3.2 kmh 29.89 in1012.2 mb 0.00 in0.0 mm 0.00 in0.0 mm 0.03 in0.8 mm
09:49 PM 59.9°F15.5°C 46.8°F8.2°C 62% 0.7 mph E1.1 kmh E 3.1 mph5.0 kmh 29.89 in1012.2 mb 0.00 in0.0 mm 0.00 in0.0 mm 0.03 in0.8 mm
09:54 PM 60.1°F15.6°C 47.5°F8.6°C 63% Calm Calm -- 29.88 in1011.9 mb 0.00 in0.0 mm 0.00 in0.0 mm 0.03 in0.8 mm
09:59 PM 60.1°F15.6°C 46.9°F8.3°C 62% 0.9 mph E1.4 kmh E 4.3 mph6.9 kmh 29.88 in1011.9 mb 0.00 in0.0 mm 0.00 in0.0 mm 0.03 in0.8 mm
10:04 PM 60.1°F15.6°C 47.5°F8.6°C 63% 0.2 mph WNW0.3 kmh WNW 1.1 mph1.8 kmh 29.88 in1011.9 mb 0.00 in0.0 mm 0.00 in0.0 mm 0.03 in0.8 mm
10:09 PM 60.1°F15.6°C 47.5°F8.6°C 63% Calm Calm 1.1 mph1.8 kmh 29.88 in1011.9 mb 0.00 in0.0 mm 0.00 in0.0 mm 0.03 in0.8 mm
10:14 PM 60.1°F15.6°C 47.8°F8.8°C 64% 0.9 mph E1.4 kmh E 1.1 mph1.8 kmh -- 0.00 in0.0 mm 0.00 in0.0 mm 0.03 in0.8 mm
10:19 PM 60.1°F15.6°C 47.8°F8.8°C 64% 0.2 mph ENE0.3 kmh ENE 1.1 mph1.8 kmh 29.88 in1011.9 mb 0.00 in0.0 mm 0.00 in0.0 mm 0.03 in0.8 mm
10:24 PM 60.1°F15.6°C 47.8°F8.8°C 64% Calm Calm -- 29.88 in1011.9 mb 0.00 in0.0 mm 0.00 in0.0 mm 0.03 in0.8 mm
10:29 PM 60.1°F15.6°C 47.8°F8.8°C 64% Calm Calm -- 29.88 in1011.9 mb 0.00 in0.0 mm 0.00 in0.0 mm 0.03 in0.8 mm
10:32 PM 60.1°F15.6°C 47.8°F8.8°C 64% Calm Calm -- 29.88 in1011.9 mb 0.00 in0.0 mm 0.00 in0.0 mm 0.03 in0.8 mm
10:37 PM 59.5°F15.3°C 48.2°F9.0°C 66% Calm Calm -- 29.88 in1011.9 mb 0.00 in0.0 mm 0.00 in0.0 mm 0.03 in0.8 mm
10:42 PM 59.4°F15.2°C 48.0°F8.9°C 66% Calm Calm -- 29.88 in1011.9 mb 0.00 in0.0 mm 0.00 in0.0 mm 0.03 in0.8 mm
10:47 PM 59.5°F15.3°C 48.2°F9.0°C 66% 0.4 mph NE0.6 kmh NE 2.0 mph3.2 kmh 29.88 in1011.9 mb 0.00 in0.0 mm 0.00 in0.0 mm 0.03 in0.8 mm
10:52 PM 59.7°F15.4°C 48.7°F9.3°C 67% Calm Calm 1.1 mph1.8 kmh 29.88 in1011.9 mb 0.00 in0.0 mm 0.00 in0.0 mm 0.03 in0.8 mm
10:57 PM 59.9°F15.5°C 48.6°F9.2°C 66% Calm Calm -- 29.88 in1011.9 mb 0.00 in0.0 mm 0.00 in0.0 mm 0.03 in0.8 mm
11:02 PM 60.3°F15.7°C 48.9°F9.4°C 66% Calm Calm 2.0 mph3.2 kmh 29.87 in1011.5 mb 0.00 in0.0 mm 0.00 in0.0 mm 0.03 in0.8 mm
11:07 PM 60.4°F15.8°C 49.1°F9.5°C 66% Calm Calm 1.1 mph1.8 kmh 29.86 in1011.2 mb 0.00 in0.0 mm 0.00 in0.0 mm 0.03 in0.8 mm
11:16 PM -- -- - - N N -- -- 0.00 in0.0 mm 0.00 in0.0 mm 0.03 in0.8 mm
11:21 PM 61.0°F16.1°C 50.0°F10.0°C 67% Calm Calm -- 29.85 in1010.8 mb 0.00 in0.0 mm 0.00 in0.0 mm 0.03 in0.8 mm
11:26 PM 61.2°F16.2°C 50.2°F10.1°C 67% Calm Calm -- 29.84 in1010.5 mb 0.00 in0.0 mm 0.00 in0.0 mm 0.03 in0.8 mm
11:31 PM 61.5°F16.4°C 50.0°F10.0°C 66% 0.2 mph NE0.3 kmh NE 2.0 mph3.2 kmh 29.83 in1010.2 mb 0.00 in0.0 mm 0.00 in0.0 mm 0.03 in0.8 mm
11:36 PM 61.9°F16.6°C 50.4°F10.2°C 66% Calm Calm 1.1 mph1.8 kmh 29.83 in1010.2 mb 0.00 in0.0 mm 0.00 in0.0 mm 0.03 in0.8 mm
11:41 PM 61.9°F16.6°C 50.4°F10.2°C 66% Calm Calm -- 29.82 in1009.8 mb 0.00 in0.0 mm 0.00 in0.0 mm 0.03 in0.8 mm
11:46 PM 61.9°F16.6°C 50.7°F10.4°C 67% Calm Calm -- 29.82 in1009.8 mb 0.00 in0.0 mm 0.00 in0.0 mm 0.03 in0.8 mm
11:51 PM 62.1°F16.7°C 51.4°F10.8°C 68% Calm Calm -- 29.81 in1009.5 mb 0.00 in0.0 mm 0.00 in0.0 mm 0.03 in0.8 mm
11:56 PM 62.2°F16.8°C 51.1°F10.6°C 67% 0.4 mph NE0.6 kmh NE 3.1 mph5.0 kmh 29.81 in1009.5 mb 0.00 in0.0 mm 0.00 in0.0 mm 0.03 in0.8 mm